createdAt,value
2022-08-11T00:01:21.445Z,37.54
2022-08-11T00:06:45.744Z,37.30
2022-08-11T00:12:17.175Z,37.56
2022-08-11T00:17:39.867Z,37.61
2022-08-11T00:23:06.409Z,37.74
2022-08-11T00:28:31.510Z,37.77
2022-08-11T00:33:53.857Z,37.47
2022-08-11T00:39:18.455Z,37.75
2022-08-11T00:45:01.405Z,37.55
2022-08-11T00:50:36.278Z,37.50
2022-08-11T00:56:16.253Z,37.56
2022-08-11T01:01:38.483Z,37.54
2022-08-11T01:07:15.709Z,37.20
2022-08-11T01:13:22.431Z,37.13
2022-08-11T01:18:59.086Z,37.42
2022-08-11T01:24:44.911Z,37.38
2022-08-11T01:30:19.267Z,37.40
2022-08-11T01:35:41.834Z,37.33
2022-08-11T01:41:23.216Z,37.19
2022-08-11T01:46:58.018Z,36.99
2022-08-11T01:52:34.618Z,37.75
2022-08-11T01:58:18.372Z,37.33
2022-08-11T02:03:54.368Z,37.35
2022-08-11T02:09:29.233Z,37.56
2022-08-11T02:15:16.583Z,37.09
2022-08-11T02:21:10.349Z,37.21
2022-08-11T02:26:40.993Z,37.36
2022-08-11T02:32:31.153Z,37.42
2022-08-11T02:38:11.199Z,37.70
2022-08-11T02:43:46.089Z,37.17
2022-08-11T02:49:46.870Z,37.43
2022-08-11T02:55:48.047Z,37.36
2022-08-11T03:01:28.801Z,37.57
2022-08-11T03:07:05.518Z,36.97
2022-08-11T03:13:21.259Z,37.54
2022-08-11T03:19:09.223Z,37.13
2022-08-11T03:25:02.754Z,37.20
2022-08-11T03:30:50.611Z,37.34
2022-08-11T03:36:15.014Z,37.39
2022-08-11T03:42:01.855Z,37.31
2022-08-11T03:47:53.423Z,37.35
2022-08-11T03:53:41.980Z,36.87
2022-08-11T03:59:09.687Z,37.32
2022-08-11T04:04:50.692Z,37.29
2022-08-11T04:10:59.273Z,37.36
2022-08-11T04:16:44.516Z,37.29
2022-08-11T04:22:21.575Z,37.12
2022-08-11T04:28:29.243Z,37.14
2022-08-11T04:34:14.476Z,37.05
2022-08-11T04:39:54.466Z,37.24
2022-08-11T04:45:50.100Z,37.49
2022-08-11T04:51:49.849Z,37.26
2022-08-11T04:57:48.409Z,37.46
2022-08-11T05:03:26.432Z,37.65
2022-08-11T05:09:07.552Z,37.10
2022-08-11T05:15:17.231Z,37.42
2022-08-11T05:21:10.408Z,36.68
2022-08-11T05:27:06.143Z,36.72
2022-08-11T05:33:00.896Z,36.57
2022-08-11T05:38:45.362Z,36.24
2022-08-11T05:44:26.205Z,36.33
2022-08-11T05:50:13.556Z,36.02
2022-08-11T05:56:03.110Z,36.06
2022-08-11T06:01:27.802Z,36.12
2022-08-11T06:07:12.574Z,36.25
2022-08-11T06:12:37.691Z,36.21
2022-08-11T06:18:01.508Z,36.04
2022-08-11T06:23:25.400Z,36.23
2022-08-11T06:28:48.927Z,36.12
2022-08-11T06:34:27.217Z,36.25
2022-08-11T06:40:09.453Z,36.25
2022-08-11T06:45:40.622Z,36.26
2022-08-11T06:51:12.837Z,36.31
2022-08-11T06:57:29.254Z,36.55
2022-08-11T07:03:09.423Z,36.23
2022-08-11T07:09:27.610Z,36.23
2022-08-11T07:15:11.085Z,36.44
2022-08-11T07:20:51.352Z,36.58
2022-08-11T07:26:32.635Z,36.42
2022-08-11T07:31:55.199Z,36.50
2022-08-11T07:37:20.657Z,36.57
2022-08-11T07:42:46.777Z,36.44
2022-08-11T07:48:29.388Z,36.61
2022-08-11T07:53:58.695Z,36.62
2022-08-11T07:59:57.578Z,36.49
2022-08-11T08:05:41.606Z,36.65
2022-08-11T08:11:27.620Z,36.59
2022-08-11T08:17:08.374Z,36.71
2022-08-11T08:22:38.988Z,37.05
2022-08-11T08:28:05.762Z,36.75
2022-08-11T08:33:31.373Z,36.74
2022-08-11T08:38:57.129Z,37.04
2022-08-11T08:44:37.700Z,36.93
2022-08-11T08:50:07.601Z,36.82
2022-08-11T08:55:31.864Z,36.88
2022-08-11T09:00:56.805Z,37.04
2022-08-11T09:06:19.206Z,36.82
2022-08-11T09:11:53.651Z,37.00
2022-08-11T09:17:16.064Z,37.52
2022-08-11T09:23:35.189Z,37.60
2022-08-11T09:28:45.117Z,37.97
2022-08-11T09:34:07.118Z,37.79
2022-08-11T09:39:49.892Z,38.02
2022-08-11T09:45:13.795Z,37.45
2022-08-11T09:50:39.481Z,37.41
2022-08-11T09:56:22.358Z,37.75
2022-08-11T10:01:49.354Z,37.58
2022-08-11T10:07:14.734Z,37.70
2022-08-11T10:12:42.078Z,37.39
2022-08-11T10:18:32.811Z,37.63
2022-08-11T10:24:17.296Z,37.20
2022-08-11T10:29:59.952Z,37.28
2022-08-11T10:35:26.243Z,37.19
2022-08-11T10:41:08.232Z,36.99
2022-08-11T10:46:48.875Z,36.98
2022-08-11T10:52:29.825Z,37.02
2022-08-11T10:58:10.423Z,37.03
2022-08-11T11:03:36.006Z,37.29
2022-08-11T11:09:13.131Z,37.05
2022-08-11T11:14:58.969Z,37.10
2022-08-11T11:20:36.259Z,37.27
2022-08-11T11:26:38.668Z,36.80
2022-08-11T11:32:12.128Z,37.13
2022-08-11T11:37:37.365Z,36.93
2022-08-11T11:42:59.552Z,36.82
2022-08-11T11:48:21.377Z,36.67
2022-08-11T11:53:45.536Z,37.03
2022-08-11T11:59:26.647Z,37.00
2022-08-11T12:04:48.931Z,37.12
2022-08-11T12:10:10.897Z,37.02
2022-08-11T12:16:04.318Z,36.89
2022-08-11T12:21:16.938Z,36.80
2022-08-11T12:27:16.096Z,36.77
2022-08-11T12:32:41.234Z,36.87
2022-08-11T12:38:10.845Z,36.86
2022-08-11T12:43:56.504Z,36.72
2022-08-11T12:49:45.172Z,36.42
2022-08-11T12:55:14.129Z,36.66
2022-08-11T13:00:54.620Z,36.59
2022-08-11T13:06:16.771Z,37.02
2022-08-11T13:11:59.027Z,36.41
2022-08-11T13:17:40.432Z,36.35
2022-08-11T13:23:06.871Z,36.19
2022-08-11T13:28:28.881Z,36.53
2022-08-11T13:33:51.886Z,36.34
2022-08-11T13:39:14.644Z,36.21
2022-08-11T13:44:38.720Z,36.26
2022-08-11T13:50:01.483Z,36.25
2022-08-11T13:55:51.922Z,36.19
2022-08-11T14:01:35.251Z,36.02
2022-08-11T14:06:53.414Z,36.09
2022-08-11T14:12:40.137Z,35.76
2022-08-11T14:18:08.105Z,36.17
2022-08-11T14:23:40.473Z,36.06
2022-08-11T14:29:11.236Z,36.21
2022-08-11T14:34:34.676Z,35.78
2022-08-11T14:40:04.138Z,35.98
2022-08-11T14:45:57.992Z,36.13
2022-08-11T14:51:22.344Z,36.19
2022-08-11T14:56:46.024Z,36.05
2022-08-11T15:02:27.037Z,36.00
2022-08-11T15:07:50.297Z,36.08
2022-08-11T15:13:13.175Z,35.94
2022-08-11T15:18:35.428Z,35.79
2022-08-11T15:24:15.949Z,35.76
2022-08-11T15:29:59.736Z,36.02
2022-08-11T15:35:40.340Z,35.59
2022-08-11T15:41:23.167Z,35.20
2022-08-11T15:46:52.484Z,35.20
2022-08-11T15:52:21.508Z,35.37
2022-08-11T15:58:03.148Z,34.94
2022-08-11T16:03:54.481Z,34.79
2022-08-11T16:09:47.496Z,34.68
2022-08-11T16:15:29.952Z,34.91
2022-08-11T16:20:55.553Z,34.64
2022-08-11T16:27:07.748Z,35.06
2022-08-11T16:32:20.624Z,35.09
2022-08-11T16:38:03.264Z,35.21
2022-08-11T16:43:46.748Z,35.07
2022-08-11T16:49:17.376Z,34.61
2022-08-11T16:54:44.382Z,34.90
2022-08-11T17:00:12.661Z,34.91
2022-08-11T17:06:03.228Z,35.16
2022-08-11T17:11:51.757Z,35.07
2022-08-11T17:17:27.643Z,35.11
2022-08-11T17:23:13.411Z,35.30
2022-08-11T17:28:37.235Z,35.28
2022-08-11T17:34:19.380Z,35.45
2022-08-11T17:39:42.235Z,35.22
2022-08-11T17:45:24.426Z,35.15
2022-08-11T17:50:48.423Z,35.26
2022-08-11T17:56:29.439Z,35.79
2022-08-11T18:01:54.099Z,35.54
2022-08-11T18:07:40.269Z,35.98
2022-08-11T18:13:21.526Z,35.72
2022-08-11T18:19:02.122Z,35.51
2022-08-11T18:24:45.974Z,35.41
2022-08-11T18:30:27.071Z,35.85
2022-08-11T18:36:17.381Z,35.73
2022-08-11T18:41:59.068Z,35.46
2022-08-11T18:47:41.761Z,35.71
2022-08-11T18:53:25.561Z,35.49
2022-08-11T18:59:07.297Z,35.45
2022-08-11T19:04:48.662Z,35.45
2022-08-11T19:10:30.278Z,36.13
2022-08-11T19:16:13.045Z,35.85
2022-08-11T19:21:56.076Z,36.18
2022-08-11T19:27:38.078Z,36.36
2022-08-11T19:33:57.243Z,36.62
2022-08-11T19:39:21.037Z,36.52
2022-08-11T19:45:03.095Z,36.76
2022-08-11T19:50:43.574Z,36.78
2022-08-11T19:56:25.616Z,36.49
2022-08-11T20:02:13.662Z,37.13
2022-08-11T20:07:56.079Z,36.91
2022-08-11T20:13:41.713Z,37.08
2022-08-11T20:19:55.445Z,36.76
2022-08-11T20:25:27.133Z,36.94
2022-08-11T20:31:09.765Z,37.17
2022-08-11T20:36:52.518Z,36.94
2022-08-11T20:42:37.234Z,36.77
2022-08-11T20:48:20.273Z,36.44
2022-08-11T20:54:05.416Z,36.70
2022-08-11T20:59:56.256Z,36.63
2022-08-11T21:06:09.071Z,36.76
2022-08-11T21:11:40.009Z,36.43
2022-08-11T21:17:28.410Z,36.35
2022-08-11T21:23:23.951Z,36.27
2022-08-11T21:29:06.435Z,36.34
2022-08-11T21:34:48.043Z,36.28
2022-08-11T21:40:29.488Z,36.44
2022-08-11T21:46:11.498Z,36.41
2022-08-11T21:51:51.592Z,36.18
2022-08-11T21:57:33.630Z,36.28
2022-08-11T22:03:14.978Z,36.09
2022-08-11T22:08:55.538Z,36.09
2022-08-11T22:14:35.923Z,35.89
2022-08-11T22:20:16.980Z,36.20
2022-08-11T22:26:03.778Z,36.05
2022-08-11T22:31:50.368Z,35.92
2022-08-11T22:37:32.308Z,35.88
2022-08-11T22:43:12.973Z,36.42
2022-08-11T22:48:55.522Z,36.16
2022-08-11T22:54:37.614Z,36.22
2022-08-11T23:00:20.213Z,35.54
2022-08-11T23:06:00.899Z,36.31
2022-08-11T23:12:07.018Z,35.97
2022-08-11T23:17:46.579Z,35.83
2022-08-11T23:23:28.206Z,35.93
2022-08-11T23:29:08.568Z,35.76
2022-08-11T23:35:04.276Z,35.80
2022-08-11T23:40:57.970Z,35.85
2022-08-11T23:46:44.104Z,35.72
2022-08-11T23:52:25.698Z,35.78
2022-08-11T23:58:06.590Z,35.91
